Time;durP1;ratioP1;P1;durP2;ratioP2;P2;SDS_P1;SDS_P2;PMS_P1;PMS_P2;Temp;Humidity;BMP_temperature;BMP_pressure;BME280_temperature;BME280_humidity;BME280_pressure;Samples;Min_cycle;Max_cycle;Signal;HPM_P1;HPM_P2
2021/06/22 00:01:05;;;;;;;14.65;4.85;;;;;;;10.88;100.00;100298.25;5074864;28;20032;-79
2021/06/22 00:03:30;;;;;;;14.35;5.15;;;;;;;10.83;100.00;100298.34;5080280;28;20522;-79
2021/06/22 00:05:56;;;;;;;16.40;4.28;;;;;;;10.80;100.00;100290.63;5075463;28;20040;-78
2021/06/22 00:08:21;;;;;;;17.60;4.97;;;;;;;10.77;100.00;100290.69;5075069;28;20025;-79
2021/06/22 00:10:47;;;;;;;10.55;4.47;;;;;;;10.74;100.00;100295.94;5074998;28;20032;-78
2021/06/22 00:13:13;;;;;;;16.73;4.82;;;;;;;10.74;100.00;100305.47;5075892;28;20025;-80
2021/06/22 00:15:38;;;;;;;12.52;4.40;;;;;;;10.77;100.00;100310.59;5074443;28;20396;-79
2021/06/22 00:18:03;;;;;;;14.55;4.80;;;;;;;10.80;100.00;100313.97;5074064;28;20465;-79
2021/06/22 00:20:29;;;;;;;19.15;5.13;;;;;;;10.85;100.00;100323.41;5075163;28;20023;-78
2021/06/22 00:22:55;;;;;;;16.98;5.18;;;;;;;10.92;100.00;100328.41;5075375;28;20035;-79
2021/06/22 00:25:22;;;;;;;14.13;4.70;;;;;;;10.94;100.00;100338.75;5074748;28;20104;-78
2021/06/22 00:27:49;;;;;;;25.00;6.20;;;;;;;10.97;100.00;100341.28;5075696;28;20039;-79
2021/06/22 00:30:15;;;;;;;16.30;5.25;;;;;;;11.00;100.00;100342.06;5074978;28;20024;-78
2021/06/22 00:32:40;;;;;;;18.90;5.38;;;;;;;11.02;100.00;100334.22;5074454;28;20120;-78
2021/06/22 00:35:08;;;;;;;15.13;4.95;;;;;;;11.01;100.00;100335.97;5075915;28;20021;-80
2021/06/22 00:37:33;;;;;;;17.35;5.07;;;;;;;11.06;100.00;100348.88;5074195;28;20055;-78
2021/06/22 00:39:59;;;;;;;23.02;5.38;;;;;;;11.11;100.00;100362.56;5075153;28;20043;-78
2021/06/22 00:42:24;;;;;;;19.42;5.30;;;;;;;11.16;100.00;100360.72;5073830;28;20020;-78
2021/06/22 00:44:57;;;;;;;22.02;5.45;;;;;;;11.10;100.00;100366.06;5075173;28;20070;-78
2021/06/22 00:47:23;;;;;;;16.52;5.47;;;;;;;11.13;100.00;100365.97;5072968;28;20052;-78
2021/06/22 00:49:49;;;;;;;17.10;4.88;;;;;;;11.12;100.00;100363.44;5075242;28;20020;-79
2021/06/22 00:52:17;;;;;;;13.82;5.13;;;;;;;11.09;100.00;100353.13;5076289;28;20089;-79
2021/06/22 00:54:42;;;;;;;21.10;5.38;;;;;;;11.12;100.00;100355.66;5076791;28;20085;-79
2021/06/22 00:57:11;;;;;;;15.00;4.68;;;;;;;11.14;100.00;100341.72;5075325;28;20119;-79
2021/06/22 00:59:37;;;;;;;20.98;5.80;;;;;;;11.13;100.00;100344.38;5076028;28;20020;-80
2021/06/22 01:02:04;;;;;;;13.57;4.60;;;;;;;11.10;100.00;100357.41;5076829;28;20392;-80
2021/06/22 01:04:30;;;;;;;20.13;4.55;;;;;;;11.09;100.00;100356.56;5076611;28;20426;-79
2021/06/22 01:06:56;;;;;;;18.33;4.47;;;;;;;11.06;100.00;100351.44;5076229;28;20032;-79
2021/06/22 01:09:21;;;;;;;15.43;4.28;;;;;;;11.04;100.00;100350.63;5076048;28;20016;-79
2021/06/22 01:11:47;;;;;;;13.32;3.92;;;;;;;10.99;100.00;100352.47;5076598;28;20031;-79
2021/06/22 01:14:12;;;;;;;11.93;4.30;;;;;;;10.96;100.00;100347.34;5077017;28;20028;-80
2021/06/22 01:16:38;;;;;;;23.73;5.25;;;;;;;10.98;100.00;100353.38;5077601;28;20020;-79
2021/06/22 01:19:06;;;;;;;16.95;5.05;;;;;;;10.94;100.00;100352.59;5079955;28;20032;-79
2021/06/22 01:21:33;;;;;;;14.98;4.20;;;;;;;10.93;100.00;100347.41;5075931;28;20077;-80
2021/06/22 01:24:09;;;;;;;13.40;3.95;;;;;;;10.91;100.00;100354.41;5074336;28;20052;-79
2021/06/22 01:26:36;;;;;;;12.30;4.22;;;;;;;10.97;100.00;100349.91;5075624;28;20028;-79
2021/06/22 01:29:06;;;;;;;12.13;4.50;;;;;;;11.00;100.00;100354.19;5074733;28;20027;-79
2021/06/22 01:31:32;;;;;;;11.63;4.10;;;;;;;10.97;100.00;100338.69;5074655;28;20141;-78
2021/06/22 01:33:57;;;;;;;17.75;4.80;;;;;;;10.95;100.00;100324.91;5075939;28;20024;-78
2021/06/22 01:36:22;;;;;;;17.25;4.78;;;;;;;10.97;100.00;100323.97;5073964;28;20052;-78
2021/06/22 01:38:48;;;;;;;16.52;4.88;;;;;;;10.96;100.00;100321.41;5074446;28;20048;-79
2021/06/22 01:41:14;;;;;;;17.90;5.07;;;;;;;10.98;100.00;100330.00;5074274;28;20028;-79
2021/06/22 01:43:39;;;;;;;12.23;4.20;;;;;;;11.00;100.00;100334.28;5074338;28;20024;-78
2021/06/22 01:46:05;;;;;;;11.10;3.92;;;;;;;11.00;100.00;100341.22;5074332;28;20031;-78
2021/06/22 01:48:30;;;;;;;18.63;4.68;;;;;;;11.00;100.00;100342.06;5075873;28;20107;-80
2021/06/22 01:50:56;;;;;;;11.25;3.50;;;;;;;11.03;100.00;100341.16;5074232;28;20028;-79
2021/06/22 01:53:23;;;;;;;10.05;3.70;;;;;;;11.09;100.00;100342.75;5073499;28;20495;-78
2021/06/22 01:55:49;;;;;;;18.05;4.75;;;;;;;11.10;100.00;100362.63;5074285;28;20112;-79
2021/06/22 01:58:16;;;;;;;14.32;4.10;;;;;;;11.11;100.00;100367.75;5073707;28;20024;-79
2021/06/22 02:00:43;;;;;;;13.35;4.43;;;;;;;11.14;100.00;100372.03;5074306;28;20074;-79
2021/06/22 02:03:14;;;;;;;12.10;4.13;;;;;;;11.15;100.00;100382.38;5075793;28;20025;-80
2021/06/22 02:05:39;;;;;;;14.13;4.13;;;;;;;11.19;100.00;100397.00;5075853;28;20028;-79
2021/06/22 02:08:04;;;;;;;18.98;4.05;;;;;;;11.26;100.00;100393.34;5074045;28;20020;-79
2021/06/22 02:10:30;;;;;;;15.98;3.90;;;;;;;11.17;100.00;100388.38;5073453;28;20119;-80
2021/06/22 02:12:56;;;;;;;17.13;4.38;;;;;;;11.22;100.00;100394.31;5076506;28;20031;-80
2021/06/22 02:15:21;;;;;;;12.65;4.20;;;;;;;11.24;100.00;100394.31;5075419;28;20020;-79
2021/06/22 02:17:46;;;;;;;13.60;3.90;;;;;;;11.29;100.00;100393.28;5073988;28;20036;-79
2021/06/22 02:20:13;;;;;;;14.77;3.90;;;;;;;11.35;100.00;100407.00;5073730;28;20395;-79
2021/06/22 02:22:39;;;;;;;16.10;4.30;;;;;;;11.32;100.00;100407.94;5074082;28;20028;-79
2021/06/22 02:25:06;;;;;;;14.90;3.95;;;;;;;11.26;100.00;100398.53;5075661;28;20028;-79
2021/06/22 02:27:33;;;;;;;16.90;4.82;;;;;;;11.27;100.00;100394.22;5073434;28;20398;-80
2021/06/22 02:29:58;;;;;;;11.35;3.70;;;;;;;11.21;100.00;100399.56;5074924;28;20027;-78
2021/06/22 02:32:27;;;;;;;14.27;3.70;;;;;;;11.17;100.00;100392.72;5073720;28;20029;-80
2021/06/22 02:34:53;;;;;;;12.43;3.80;;;;;;;11.25;100.00;100402.03;5075166;28;20491;-80
2021/06/22 02:37:18;;;;;;;20.38;4.18;;;;;;;11.21;100.00;100405.59;5073812;28;20020;-80
2021/06/22 02:39:45;;;;;;;15.90;4.60;;;;;;;11.20;100.00;100406.47;5079250;28;20064;-80
2021/06/22 02:42:10;;;;;;;12.05;3.70;;;;;;;11.24;100.00;100402.94;5078231;28;20016;-80
2021/06/22 02:44:35;;;;;;;15.35;4.07;;;;;;;11.21;100.00;100395.22;5076916;28;20020;-80
2021/06/22 02:47:01;;;;;;;14.43;3.67;;;;;;;11.19;100.00;100394.41;5078641;28;20074;-78
2021/06/22 02:49:26;;;;;;;14.52;4.07;;;;;;;11.18;100.00;100390.09;5077409;28;20092;-79
2021/06/22 02:51:52;;;;;;;15.43;4.18;;;;;;;11.25;100.00;100389.06;5076832;28;20025;-80
2021/06/22 02:54:17;;;;;;;13.13;4.15;;;;;;;11.29;100.00;100390.69;5078277;28;20101;-79
2021/06/22 02:56:43;;;;;;;14.50;4.60;;;;;;;11.24;100.00;100384.75;5078807;28;20036;-79
2021/06/22 02:59:08;;;;;;;18.25;4.50;;;;;;;11.21;100.00;100382.25;5078762;28;20017;-79
2021/06/22 03:01:33;;;;;;;12.10;4.00;;;;;;;11.26;100.00;100377.78;5078394;28;20111;-79
2021/06/22 03:03:58;;;;;;;12.57;3.95;;;;;;;11.30;100.00;100378.56;5076966;28;20024;-79
2021/06/22 03:06:24;;;;;;;14.10;4.03;;;;;;;11.32;100.00;100373.34;5077832;28;20063;-79
2021/06/22 03:08:49;;;;;;;14.93;3.80;;;;;;;11.31;100.00;100379.44;5076798;28;20388;-80
2021/06/22 03:11:14;;;;;;;13.90;3.75;;;;;;;11.25;100.00;100389.06;5078515;28;20028;-79
2021/06/22 03:13:39;;;;;;;15.65;4.15;;;;;;;11.19;100.00;100398.75;5078660;28;20028;-79
2021/06/22 03:16:05;;;;;;;16.13;3.92;;;;;;;11.21;100.00;100415.16;5077482;28;20039;-79
2021/06/22 03:18:30;;;;;;;10.38;3.25;;;;;;;11.22;100.00;100419.44;5076944;28;20121;-79
2021/06/22 03:20:55;;;;;;;14.10;3.75;;;;;;;11.21;100.00;100430.72;5077771;28;20040;-78
2021/06/22 03:23:21;;;;;;;10.57;3.40;;;;;;;11.26;100.00;100434.03;5076450;28;20020;-78
2021/06/22 03:25:46;;;;;;;8.45;3.80;;;;;;;11.25;100.00;100435.78;5077842;28;20553;-80
2021/06/22 03:28:11;;;;;;;15.02;4.00;;;;;;;11.24;100.00;100443.63;5076470;28;20115;-80
2021/06/22 03:30:39;;;;;;;16.50;4.40;;;;;;;11.26;100.00;100445.28;5076977;28;20047;-79
2021/06/22 03:33:04;;;;;;;9.68;3.50;;;;;;;11.33;100.00;100459.00;5076019;28;20029;-79
2021/06/22 03:35:29;;;;;;;10.05;3.47;;;;;;;11.33;100.00;100478.88;5077528;28;20082;-79
2021/06/22 03:37:55;;;;;;;12.77;4.32;;;;;;;11.30;100.00;100487.63;5077616;28;20468;-79
2021/06/22 03:40:21;;;;;;;13.90;4.30;;;;;;;11.40;100.00;100498.66;5075866;28;20012;-80
2021/06/22 03:42:47;;;;;;;16.98;4.50;;;;;;;11.43;100.00;100502.03;5076386;28;20028;-79
2021/06/22 03:45:14;;;;;;;12.30;3.83;;;;;;;11.50;100.00;100507.94;5077339;28;20492;-80
2021/06/22 03:47:40;;;;;;;10.30;3.67;;;;;;;11.51;100.00;100496.66;5076093;28;20021;-80
2021/06/22 03:50:07;;;;;;;17.52;4.25;;;;;;;11.38;100.00;100482.25;5083145;28;20004;-79
2021/06/22 03:52:33;;;;;;;13.00;3.92;;;;;;;11.43;100.00;100464.81;5078962;28;20102;-79
2021/06/22 03:54:58;;;;;;;16.10;4.40;;;;;;;11.43;100.00;100452.69;5078783;28;20025;-79
2021/06/22 03:57:23;;;;;;;12.88;4.32;;;;;;;11.39;100.00;100439.81;5078954;28;20033;-79
2021/06/22 03:59:50;;;;;;;17.15;4.30;;;;;;;11.38;100.00;100427.72;5078655;28;20021;-80
2021/06/22 04:02:16;;;;;;;12.10;4.05;;;;;;;11.42;100.00;100427.63;5078550;28;20121;-79
2021/06/22 04:04:41;;;;;;;14.05;4.07;;;;;;;11.42;100.00;100413.75;5077239;28;20021;-79
2021/06/22 04:07:07;;;;;;;13.70;3.97;;;;;;;11.40;100.00;100415.56;5076676;28;20033;-79
2021/06/22 04:09:32;;;;;;;12.38;4.13;;;;;;;11.44;100.00;100420.63;5075661;28;20016;-79
2021/06/22 04:11:57;;;;;;;15.43;4.28;;;;;;;11.43;100.00;100434.50;5074983;28;20101;-79
2021/06/22 04:14:23;;;;;;;15.13;4.50;;;;;;;11.38;100.00;100438.09;5073328;28;20035;-79
2021/06/22 04:16:48;;;;;;;12.93;4.00;;;;;;;11.44;100.00;100444.00;5074798;28;20099;-78
2021/06/22 04:19:13;;;;;;;8.93;3.95;;;;;;;11.40;100.00;100437.19;5074677;28;20465;-78
2021/06/22 04:21:39;;;;;;;15.02;3.90;;;;;;;11.38;100.00;100445.88;5074633;28;20031;-78
2021/06/22 04:24:05;;;;;;;12.18;3.78;;;;;;;11.39;100.00;100448.47;5074976;28;20035;-78
2021/06/22 04:26:31;;;;;;;12.85;3.88;;;;;;;11.38;100.00;100441.53;5074567;28;20028;-78
2021/06/22 04:28:56;;;;;;;11.65;3.90;;;;;;;11.38;100.00;100436.34;5074601;28;20383;-78
2021/06/22 04:31:21;;;;;;;11.20;3.92;;;;;;;11.35;100.00;100432.97;5074596;28;20448;-78
2021/06/22 04:33:47;;;;;;;15.57;4.75;;;;;;;11.33;100.00;100439.94;5073262;28;20032;-78
2021/06/22 04:36:12;;;;;;;10.98;3.88;;;;;;;11.32;100.00;100451.22;5073068;28;20024;-78
2021/06/22 04:38:37;;;;;;;14.20;4.90;;;;;;;11.28;100.00;100447.84;5073061;28;20028;-78
2021/06/22 04:41:03;;;;;;;16.70;4.72;;;;;;;11.30;100.00;100453.88;5075229;28;20530;-78
2021/06/22 04:43:28;;;;;;;17.05;5.50;;;;;;;11.36;100.00;100443.34;5074121;28;20034;-78
2021/06/22 04:45:54;;;;;;;10.70;4.55;;;;;;;11.40;100.00;100432.00;5074321;28;20028;-78
2021/06/22 04:48:19;;;;;;;12.95;5.03;;;;;;;11.41;100.00;100428.50;5072908;28;20020;-78
2021/06/22 04:50:44;;;;;;;9.38;4.13;;;;;;;11.42;100.00;100430.22;5072707;28;20016;-79
2021/06/22 04:53:10;;;;;;;11.25;3.78;;;;;;;11.48;100.00;100432.66;5073963;28;20081;-79
2021/06/22 04:55:35;;;;;;;11.23;3.75;;;;;;;11.48;100.00;100424.88;5095266;22;20057;-78
2021/06/22 04:58:00;;;;;;;11.70;4.40;;;;;;;11.59;100.00;100431.53;5093073;28;20492;-78
2021/06/22 05:00:27;;;;;;;18.60;4.57;;;;;;;11.67;100.00;100432.22;5093340;28;20095;-78
2021/06/22 05:02:53;;;;;;;15.68;4.65;;;;;;;11.75;100.00;100431.13;5094321;28;20107;-79
2021/06/22 05:05:18;;;;;;;13.30;4.22;;;;;;;11.77;100.00;100433.69;5094274;28;20502;-79
2021/06/22 05:07:43;;;;;;;10.75;3.33;;;;;;;11.85;100.00;100434.38;5093994;28;20036;-79
2021/06/22 05:10:10;;;;;;;13.45;4.30;;;;;;;12.00;100.00;100447.88;5075698;28;20047;-79
2021/06/22 05:12:35;;;;;;;12.88;4.38;;;;;;;12.02;100.00;100446.94;5075624;28;20088;-79
2021/06/22 05:15:01;;;;;;;12.73;4.28;;;;;;;12.09;100.00;100451.06;5093766;28;20169;-79
2021/06/22 05:17:27;;;;;;;11.80;4.75;;;;;;;12.14;100.00;100456.16;5093567;28;20031;-79
2021/06/22 05:19:54;;;;;;;16.13;5.22;;;;;;;12.05;100.00;100462.47;5093793;28;20016;-79
2021/06/22 05:22:19;;;;;;;17.95;4.95;;;;;;;12.12;100.00;100466.59;5093720;28;20139;-79
2021/06/22 05:24:44;;;;;;;16.35;4.40;;;;;;;12.19;100.00;100475.09;5093481;28;20028;-78
2021/06/22 05:27:12;;;;;;;15.30;4.43;;;;;;;12.32;100.00;100480.84;5093556;28;20024;-79
2021/06/22 05:29:38;;;;;;;19.75;4.15;;;;;;;12.53;100.00;100485.47;5075291;28;20499;-78
2021/06/22 05:32:03;;;;;;;11.45;4.28;;;;;;;12.47;100.00;100492.56;5075325;28;20028;-78
2021/06/22 05:34:31;;;;;;;12.50;4.88;;;;;;;12.46;100.00;100485.66;5093428;28;20369;-78
2021/06/22 05:36:56;;;;;;;18.90;4.55;;;;;;;12.47;100.00;100489.94;5093511;28;20028;-79
2021/06/22 05:39:21;;;;;;;15.75;4.00;;;;;;;12.46;100.00;100486.50;5075319;28;20020;-78
2021/06/22 05:41:47;;;;;;;12.90;4.72;;;;;;;12.67;100.00;100491.13;5075094;28;20020;-79
2021/06/22 05:44:12;;;;;;;12.65;4.20;;;;;;;12.69;100.00;100493.69;5075135;28;20057;-79
2021/06/22 05:46:37;;;;;;;11.80;3.92;;;;;;;13.14;100.00;100499.28;5075088;28;20028;-79
2021/06/22 05:49:03;;;;;;;12.02;4.35;;;;;;;13.11;100.00;100499.38;5093273;28;20468;-78
2021/06/22 05:51:28;;;;;;;12.35;4.65;;;;;;;12.88;100.00;100502.69;5093296;28;20024;-78
2021/06/22 05:53:53;;;;;;;15.93;4.43;;;;;;;13.03;100.00;100505.75;5093268;28;20031;-78
2021/06/22 05:56:19;;;;;;;10.93;4.40;;;;;;;13.13;100.00;100502.81;5093338;28;20070;-78
2021/06/22 05:58:44;;;;;;;13.02;3.78;;;;;;;13.11;100.00;100498.53;5093174;28;20472;-78
2021/06/22 06:01:09;;;;;;;12.02;3.83;;;;;;;13.12;100.00;100495.91;5075086;28;20031;-78
2021/06/22 06:03:34;;;;;;;12.10;3.97;;;;;;;13.27;100.00;100505.06;5075047;28;20436;-79
2021/06/22 06:06:04;;;;;;;14.30;3.97;;;;;;;13.56;100.00;100506.75;5074969;28;20024;-79
2021/06/22 06:08:29;;;;;;;15.25;3.90;;;;;;;14.48;100.00;100502.84;5074848;28;20060;-79
2021/06/22 06:10:55;;;;;;;12.95;4.32;;;;;;;14.70;100.00;100509.03;5075073;28;20519;-79
2021/06/22 06:13:28;;;;;;;13.30;3.85;;;;;;;14.72;100.00;100509.81;5078259;28;20444;-79
2021/06/22 06:15:54;;;;;;;16.08;3.47;;;;;;;14.57;100.00;100502.53;5079044;28;20383;-79
2021/06/22 06:18:19;;;;;;;12.63;3.38;;;;;;;14.32;100.00;100507.75;5078949;28;20028;-79
2021/06/22 06:20:44;;;;;;;13.43;3.85;;;;;;;14.25;100.00;100504.50;5097087;28;20383;-79
2021/06/22 06:23:10;;;;;;;19.88;5.18;;;;;;;14.03;100.00;100503.50;5097057;28;20157;-79
2021/06/22 06:25:35;;;;;;;15.60;3.72;;;;;;;13.86;100.00;100509.28;5097084;28;20024;-79
2021/06/22 06:28:04;;;;;;;16.05;3.78;;;;;;;13.82;100.00;100510.25;5096905;28;20031;-78
2021/06/22 06:30:31;;;;;;;13.40;4.97;;;;;;;13.67;100.00;100509.03;5097003;28;20020;-79
2021/06/22 06:32:57;;;;;;;11.40;3.63;;;;;;;13.53;100.00;100511.22;5096919;28;20024;-79
2021/06/22 06:35:23;;;;;;;13.55;3.67;;;;;;;13.44;100.00;100516.69;5096927;28;20024;-79
2021/06/22 06:37:49;;;;;;;21.13;3.40;;;;;;;13.32;100.00;100517.91;5096923;28;20024;-79
2021/06/22 06:40:16;;;;;;;13.85;3.92;;;;;;;13.24;100.00;100519.84;5096808;28;20027;-79
2021/06/22 06:42:41;;;;;;;15.18;3.25;;;;;;;13.02;100.00;100525.72;5078641;28;20415;-79
2021/06/22 06:45:08;;;;;;;16.60;3.75;;;;;;;13.11;100.00;100535.84;5096692;28;20016;-79
2021/06/22 06:47:34;;;;;;;16.58;3.70;;;;;;;12.90;100.00;100536.50;5078172;28;20024;-79
2021/06/22 06:49:59;;;;;;;11.95;2.90;;;;;;;13.04;100.00;100546.50;5078184;28;20035;-79
2021/06/22 06:52:25;;;;;;;11.95;3.05;;;;;;;13.19;100.00;100555.63;5078624;28;20028;-79
2021/06/22 06:54:53;;;;;;;14.70;3.22;;;;;;;13.21;100.00;100551.19;5096720;28;20020;-79
2021/06/22 06:57:18;;;;;;;10.38;3.42;;;;;;;13.41;100.00;100559.31;5078795;28;20449;-79
2021/06/22 06:59:44;;;;;;;12.45;3.38;;;;;;;14.25;100.00;100551.47;5096508;28;20032;-78
2021/06/22 07:02:09;;;;;;;10.93;3.13;;;;;;;15.51;100.00;100556.53;5078676;28;20024;-79
2021/06/22 07:04:35;;;;;;;14.05;2.70;;;;;;;15.56;100.00;100560.69;5079295;28;20035;-79
2021/06/22 07:07:00;;;;;;;13.07;3.42;;;;;;;15.43;99.61;100551.63;5097238;28;20483;-79
2021/06/22 07:09:25;;;;;;;12.75;3.45;;;;;;;15.63;95.47;100548.22;5096707;28;20027;-79
2021/06/22 07:11:51;;;;;;;10.25;2.97;;;;;;;15.18;98.62;100542.09;5096974;28;20085;-79
2021/06/22 07:14:16;;;;;;;13.05;3.30;;;;;;;15.39;98.33;100548.28;5097131;28;20053;-78
2021/06/22 07:16:43;;;;;;;12.50;2.63;;;;;;;14.72;100.00;100563.81;5078859;28;20032;-79
2021/06/22 07:19:09;;;;;;;13.60;2.97;;;;;;;14.35;100.00;100572.88;5077945;28;20020;-78
2021/06/22 07:21:34;;;;;;;19.92;3.15;;;;;;;14.14;100.00;100557.94;5078209;28;20399;-79
2021/06/22 07:23:59;;;;;;;10.88;3.15;;;;;;;14.05;100.00;100557.31;5095464;28;20040;-79
2021/06/22 07:26:24;;;;;;;12.63;2.92;;;;;;;14.38;100.00;100551.91;5077972;28;20102;-79
2021/06/22 07:28:50;;;;;;;14.80;3.15;;;;;;;16.34;91.24;100562.75;5077807;28;20365;-79
2021/06/22 07:31:15;;;;;;;10.82;2.80;;;;;;;14.93;98.89;100568.25;5096452;28;20035;-79
2021/06/22 07:33:42;;;;;;;11.90;2.92;;;;;;;14.93;100.00;100555.22;5077823;28;20024;-78
2021/06/22 07:36:08;;;;;;;13.80;2.92;;;;;;;14.72;99.34;100555.97;5077541;28;20036;-79
2021/06/22 07:38:33;;;;;;;9.68;2.55;;;;;;;14.83;93.10;100564.25;5077803;28;20058;-79
2021/06/22 07:40:58;;;;;;;10.80;3.28;;;;;;;15.12;92.47;100568.44;5077794;28;20028;-79
2021/06/22 07:43:24;;;;;;;12.30;3.08;;;;;;;15.08;93.80;100577.28;5095892;28;20081;-79
2021/06/22 07:45:49;;;;;;;12.95;3.38;;;;;;;14.96;95.13;100572.50;5096455;28;20027;-78
2021/06/22 07:48:15;;;;;;;14.68;3.10;;;;;;;14.94;96.80;100572.56;5077881;28;20030;-79
2021/06/22 07:50:40;;;;;;;17.25;2.90;;;;;;;14.81;94.99;100573.94;5077524;28;20016;-79
2021/06/22 07:53:05;;;;;;;12.75;3.13;;;;;;;14.68;96.56;100580.47;5096484;28;20040;-79
2021/06/22 07:55:31;;;;;;;10.57;2.75;;;;;;;14.87;96.27;100580.66;5077830;28;20024;-79
2021/06/22 07:57:58;;;;;;;10.30;2.42;;;;;;;15.02;93.10;100581.88;5077640;28;20033;-79
2021/06/22 08:00:42;;;;;;;9.50;3.22;;;;;;;15.08;97.26;100585.13;5095797;28;20156;-79
2021/06/22 08:03:12;;;;;;;10.20;3.17;;;;;;;14.99;99.04;100582.84;5078033;28;20031;-79
2021/06/22 08:05:38;;;;;;;14.65;3.70;;;;;;;14.93;100.00;100581.31;5095675;28;20107;-79
2021/06/22 08:08:05;;;;;;;15.90;4.22;;;;;;;14.71;100.00;100582.97;5095821;28;20028;-79
2021/06/22 08:10:30;;;;;;;15.63;3.28;;;;;;;14.70;100.00;100586.50;5095755;28;20023;-79
2021/06/22 08:12:57;;;;;;;13.68;3.05;;;;;;;14.76;100.00;100575.00;5095133;28;20028;-79
2021/06/22 08:15:23;;;;;;;16.05;3.10;;;;;;;14.79;100.00;100588.78;5077309;28;20031;-79
2021/06/22 08:17:48;;;;;;;16.52;3.10;;;;;;;14.87;100.00;100589.38;5078395;28;20020;-80
2021/06/22 08:20:13;;;;;;;17.77;3.58;;;;;;;14.92;97.79;100584.81;5096659;28;20020;-79
2021/06/22 08:22:39;;;;;;;13.45;3.00;;;;;;;15.18;96.92;100583.03;5079034;28;20031;-79
2021/06/22 08:25:06;;;;;;;12.02;3.13;;;;;;;15.25;98.23;100584.50;5078954;28;20035;-79
2021/06/22 08:27:32;;;;;;;9.75;2.80;;;;;;;15.14;99.36;100589.28;5096483;28;20086;-79
2021/06/22 08:29:57;;;;;;;13.38;3.00;;;;;;;14.82;96.96;100595.66;5096555;28;20026;-79
2021/06/22 08:32:22;;;;;;;10.88;3.03;;;;;;;14.76;97.21;100594.13;5095701;28;20454;-80
2021/06/22 08:34:48;;;;;;;11.25;3.17;;;;;;;14.99;97.37;100601.13;5077457;28;20102;-79
2021/06/22 08:37:13;;;;;;;9.27;3.17;;;;;;;14.93;96.98;100604.84;5077049;28;20031;-79
2021/06/22 08:39:38;;;;;;;15.30;3.38;;;;;;;14.89;94.29;100597.16;5077233;28;20556;-79
2021/06/22 08:42:06;;;;;;;11.18;2.78;;;;;;;14.76;100.00;100604.56;5077140;28;20030;-80
2021/06/22 08:44:34;;;;;;;11.38;3.20;;;;;;;14.60;100.00;100606.84;5095627;28;20016;-80
2021/06/22 08:47:00;;;;;;;10.73;3.17;;;;;;;14.44;100.00;100601.28;5095668;28;20399;-79
2021/06/22 08:49:27;;;;;;;13.18;3.90;;;;;;;14.42;100.00;100597.00;5095530;28;20024;-79
2021/06/22 08:51:53;;;;;;;10.43;2.85;;;;;;;14.39;100.00;100602.31;5094846;28;20032;-79
2021/06/22 08:54:18;;;;;;;18.02;3.47;;;;;;;14.26;100.00;100607.94;5094683;28;20024;-79
2021/06/22 08:56:43;;;;;;;10.95;3.00;;;;;;;14.20;100.00;100602.91;5094514;28;20124;-79
2021/06/22 08:59:09;;;;;;;12.95;3.47;;;;;;;14.21;100.00;100599.41;5076927;28;20020;-79
2021/06/22 09:01:34;;;;;;;18.75;3.75;;;;;;;14.55;100.00;100606.13;5095115;28;20391;-79
2021/06/22 09:04:00;;;;;;;15.30;3.92;;;;;;;14.62;100.00;100604.16;5076757;28;20157;-82
2021/06/22 09:06:26;;;;;;;13.60;3.40;;;;;;;14.66;100.00;100608.41;5094952;28;20035;-80
2021/06/22 09:08:53;;;;;;;11.52;3.25;;;;;;;14.52;100.00;100605.41;5094469;28;20506;-80
2021/06/22 09:11:19;;;;;;;11.98;3.55;;;;;;;14.74;100.00;100606.34;5094523;28;20036;-80
2021/06/22 09:13:59;;;;;;;16.85;2.95;;;;;;;14.68;98.16;100602.19;5094918;28;20538;-79
2021/06/22 09:16:25;;;;;;;11.75;3.00;;;;;;;14.58;98.63;100610.41;5094651;28;20024;-79
2021/06/22 09:18:51;;;;;;;9.00;2.70;;;;;;;14.87;98.71;100607.66;5076102;28;20387;-79
2021/06/22 09:21:24;;;;;;;13.10;3.15;;;;;;;15.15;96.75;100606.69;5093904;28;20024;-78
2021/06/22 09:23:51;;;;;;;13.40;2.90;;;;;;;15.45;93.91;100617.72;5076030;28;20020;-79
2021/06/22 09:26:25;;;;;;;10.20;2.80;;;;;;;16.23;88.47;100601.63;5094191;28;20020;-78
2021/06/22 09:28:52;;;;;;;13.75;3.10;;;;;;;16.53;90.05;100588.16;5076036;28;20038;-78
2021/06/22 09:31:20;;;;;;;12.35;3.20;;;;;;;16.98;85.35;100595.00;5094116;28;20032;-79
2021/06/22 09:33:51;;;;;;;14.35;3.03;;;;;;;17.55;80.12;100595.91;5075850;28;20078;-79
2021/06/22 09:36:28;;;;;;;14.15;3.05;;;;;;;16.69;79.78;100604.09;5075983;28;20020;-79
2021/06/22 09:38:57;;;;;;;11.02;2.92;;;;;;;17.32;77.99;100606.59;5075582;28;20484;-78
2021/06/22 09:41:28;;;;;;;11.80;2.90;;;;;;;17.48;79.25;100620.69;5093358;28;20032;-78
2021/06/22 09:44:05;;;;;;;11.07;2.80;;;;;;;17.59;78.03;100610.56;5075195;28;20028;-78
2021/06/22 09:46:53;;;;;;;10.25;2.58;;;;;;;18.03;71.34;100607.63;5074844;28;20016;-78
2021/06/22 09:49:22;;;;;;;8.38;2.70;;;;;;;17.77;72.74;100594.91;5075013;28;20016;-78
2021/06/22 09:52:01;;;;;;;11.73;2.83;;;;;;;17.91;74.79;100597.72;5093248;28;20105;-78
2021/06/22 09:54:34;;;;;;;14.90;3.30;;;;;;;17.82;76.47;100600.78;5094304;28;20392;-79
2021/06/22 09:56:59;;;;;;;9.65;2.63;;;;;;;16.90;77.48;100591.84;5094260;28;20023;-80
2021/06/22 09:59:26;;;;;;;9.97;2.83;;;;;;;16.43;83.75;100606.03;5075320;28;20042;-79
2021/06/22 10:01:52;;;;;;;14.23;2.83;;;;;;;16.41;86.22;100605.28;5093835;28;20270;-79
2021/06/22 10:04:27;;;;;;;9.60;2.80;;;;;;;16.46;82.55;100602.44;5075471;28;20030;-79
2021/06/22 10:06:55;;;;;;;13.40;3.47;;;;;;;17.45;76.25;100602.47;5075628;28;20107;-79
2021/06/22 10:09:23;;;;;;;8.27;2.42;;;;;;;19.08;70.94;100597.97;5094200;28;20020;-79
2021/06/22 10:12:08;;;;;;;11.32;2.38;;;;;;;20.34;65.61;100605.03;5093916;28;20491;-79
2021/06/22 10:14:36;;;;;;;10.98;2.85;;;;;;;20.74;65.82;100597.44;5075649;28;20020;-79
2021/06/22 10:17:06;;;;;;;11.15;2.53;;;;;;;21.38;57.12;100596.16;5075821;28;20106;-80
2021/06/22 10:19:32;;;;;;;10.25;2.50;;;;;;;18.61;67.95;100599.50;5075655;28;20020;-80
2021/06/22 10:21:58;;;;;;;13.23;2.38;;;;;;;18.97;65.07;100595.09;5093901;28;20024;-80
2021/06/22 10:24:25;;;;;;;10.57;2.15;;;;;;;18.48;67.10;100592.31;5075616;28;20024;-80
2021/06/22 10:26:53;;;;;;;9.70;2.47;;;;;;;19.72;58.53;100598.94;5075391;28;20020;-80
2021/06/22 10:29:20;;;;;;;10.18;2.40;;;;;;;18.38;70.16;100607.66;5093351;28;20077;-79
2021/06/22 10:31:48;;;;;;;10.95;3.00;;;;;;;17.66;68.49;100609.34;5093248;28;20508;-79
2021/06/22 10:34:14;;;;;;;8.68;2.90;;;;;;;17.69;70.88;100598.72;5075029;28;20369;-79
2021/06/22 10:37:03;;;;;;;9.43;2.80;;;;;;;17.67;70.85;100610.19;5093048;28;20095;-79
2021/06/22 10:39:47;;;;;;;11.68;3.00;;;;;;;20.32;64.63;100617.47;5093247;28;20035;-80
2021/06/22 10:42:13;;;;;;;10.55;2.65;;;;;;;20.29;60.87;100609.75;5093280;28;20520;-79
2021/06/22 10:44:48;;;;;;;12.32;2.55;;;;;;;21.27;57.95;100619.69;5074836;28;20039;-79
2021/06/22 10:47:18;;;;;;;10.57;3.05;;;;;;;20.78;60.07;100612.16;5074724;28;20480;-79
2021/06/22 10:50:07;;;;;;;10.60;2.53;;;;;;;19.96;62.32;100621.25;5074674;28;20028;-79
2021/06/22 10:52:41;;;;;;;12.55;2.67;;;;;;;21.37;55.98;100606.81;5074728;28;20031;-79
2021/06/22 10:55:21;;;;;;;12.50;3.22;;;;;;;21.16;59.67;100593.13;5093010;28;20054;-79
2021/06/22 10:57:58;;;;;;;12.45;2.70;;;;;;;19.05;62.82;100598.13;5103209;22;20358;-78
2021/06/22 11:00:25;;;;;;;12.38;2.50;;;;;;;18.02;66.42;100602.47;5076500;28;20032;-78
2021/06/22 11:03:08;;;;;;;14.68;2.38;;;;;;;17.74;68.37;100622.13;5077203;28;20028;-79
2021/06/22 11:05:41;;;;;;;11.35;2.28;;;;;;;17.99;67.10;100621.84;5075383;28;20026;-78
2021/06/22 11:08:12;;;;;;;11.68;2.10;;;;;;;20.37;60.66;100620.66;5076583;28;20035;-79
2021/06/22 11:11:06;;;;;;;8.38;2.45;;;;;;;20.46;55.53;100620.13;5075306;28;20020;-79